sensor_id;sensor_type;location;lat;lon;timestamp;P1;durP1;ratioP1;P2;durP2;ratioP2
20348;SDS011;10332;50.208;18.988;2023-03-04T00:00:30;65.10;;;29.00;;
20348;SDS011;10332;50.208;18.988;2023-03-04T00:03:17;67.20;;;28.13;;
20348;SDS011;10332;50.208;18.988;2023-03-04T00:05:45;57.07;;;24.63;;
20348;SDS011;10332;50.208;18.988;2023-03-04T00:08:13;58.03;;;26.27;;
20348;SDS011;10332;50.208;18.988;2023-03-04T00:10:40;63.67;;;27.47;;
20348;SDS011;10332;50.208;18.988;2023-03-04T00:13:08;63.13;;;26.43;;
20348;SDS011;10332;50.208;18.988;2023-03-04T00:15:35;56.13;;;27.43;;
20348;SDS011;10332;50.208;18.988;2023-03-04T00:18:03;63.50;;;28.40;;
20348;SDS011;10332;50.208;18.988;2023-03-04T00:20:30;54.70;;;25.20;;
20348;SDS011;10332;50.208;18.988;2023-03-04T00:22:58;63.33;;;27.43;;
20348;SDS011;10332;50.208;18.988;2023-03-04T00:25:25;61.90;;;27.70;;
20348;SDS011;10332;50.208;18.988;2023-03-04T00:27:53;70.30;;;30.00;;
20348;SDS011;10332;50.208;18.988;2023-03-04T00:30:20;69.07;;;30.33;;
20348;SDS011;10332;50.208;18.988;2023-03-04T00:32:47;63.90;;;28.77;;
20348;SDS011;10332;50.208;18.988;2023-03-04T00:35:15;64.93;;;30.33;;
20348;SDS011;10332;50.208;18.988;2023-03-04T00:37:43;72.27;;;32.47;;
20348;SDS011;10332;50.208;18.988;2023-03-04T00:40:10;73.00;;;32.93;;
20348;SDS011;10332;50.208;18.988;2023-03-04T00:42:38;74.83;;;32.50;;
20348;SDS011;10332;50.208;18.988;2023-03-04T00:45:06;77.37;;;34.57;;
20348;SDS011;10332;50.208;18.988;2023-03-04T00:47:34;72.60;;;32.37;;
20348;SDS011;10332;50.208;18.988;2023-03-04T00:50:02;80.57;;;35.33;;
20348;SDS011;10332;50.208;18.988;2023-03-04T00:52:30;69.13;;;31.40;;
20348;SDS011;10332;50.208;18.988;2023-03-04T00:54:58;72.03;;;31.63;;
20348;SDS011;10332;50.208;18.988;2023-03-04T00:57:25;76.80;;;31.90;;
20348;SDS011;10332;50.208;18.988;2023-03-04T00:59:53;72.63;;;32.07;;
20348;SDS011;10332;50.208;18.988;2023-03-04T01:02:20;70.80;;;31.87;;
20348;SDS011;10332;50.208;18.988;2023-03-04T01:04:48;74.47;;;32.63;;
20348;SDS011;10332;50.208;18.988;2023-03-04T01:07:15;71.20;;;30.63;;
20348;SDS011;10332;50.208;18.988;2023-03-04T01:09:42;73.30;;;31.87;;
20348;SDS011;10332;50.208;18.988;2023-03-04T01:12:10;79.33;;;33.33;;
20348;SDS011;10332;50.208;18.988;2023-03-04T01:14:37;77.30;;;33.33;;
20348;SDS011;10332;50.208;18.988;2023-03-04T01:17:05;75.80;;;34.50;;
20348;SDS011;10332;50.208;18.988;2023-03-04T01:19:32;82.73;;;35.37;;
20348;SDS011;10332;50.208;18.988;2023-03-04T01:22:00;72.73;;;34.13;;
20348;SDS011;10332;50.208;18.988;2023-03-04T01:24:27;75.57;;;31.43;;
20348;SDS011;10332;50.208;18.988;2023-03-04T01:26:55;68.03;;;31.50;;
20348;SDS011;10332;50.208;18.988;2023-03-04T01:29:23;76.20;;;31.90;;
20348;SDS011;10332;50.208;18.988;2023-03-04T01:31:50;72.60;;;31.20;;
20348;SDS011;10332;50.208;18.988;2023-03-04T01:34:17;73.13;;;32.13;;
20348;SDS011;10332;50.208;18.988;2023-03-04T01:36:45;75.63;;;31.10;;
20348;SDS011;10332;50.208;18.988;2023-03-04T01:39:12;71.93;;;32.07;;
20348;SDS011;10332;50.208;18.988;2023-03-04T01:41:40;68.43;;;31.47;;
20348;SDS011;10332;50.208;18.988;2023-03-04T01:44:08;72.83;;;32.90;;
20348;SDS011;10332;50.208;18.988;2023-03-04T01:46:37;71.90;;;30.80;;
20348;SDS011;10332;50.208;18.988;2023-03-04T01:49:10;67.10;;;29.77;;
20348;SDS011;10332;50.208;18.988;2023-03-04T01:51:43;66.03;;;29.37;;
20348;SDS011;10332;50.208;18.988;2023-03-04T01:54:15;65.33;;;30.50;;
20348;SDS011;10332;50.208;18.988;2023-03-04T01:56:45;61.47;;;28.23;;
20348;SDS011;10332;50.208;18.988;2023-03-04T01:59:15;60.17;;;27.33;;
20348;SDS011;10332;50.208;18.988;2023-03-04T02:01:51;67.47;;;29.87;;
20348;SDS011;10332;50.208;18.988;2023-03-04T02:04:23;69.03;;;30.30;;
20348;SDS011;10332;50.208;18.988;2023-03-04T02:07:00;68.10;;;30.17;;
20348;SDS011;10332;50.208;18.988;2023-03-04T02:09:30;64.37;;;28.27;;
20348;SDS011;10332;50.208;18.988;2023-03-04T02:12:00;61.43;;;26.87;;
20348;SDS011;10332;50.208;18.988;2023-03-04T02:14:27;67.20;;;28.43;;
20348;SDS011;10332;50.208;18.988;2023-03-04T02:16:55;54.77;;;24.67;;
20348;SDS011;10332;50.208;18.988;2023-03-04T02:19:32;58.33;;;25.70;;
20348;SDS011;10332;50.208;18.988;2023-03-04T02:22:28;58.53;;;26.67;;
20348;SDS011;10332;50.208;18.988;2023-03-04T02:24:57;62.20;;;27.90;;
20348;SDS011;10332;50.208;18.988;2023-03-04T02:27:41;61.00;;;26.07;;
20348;SDS011;10332;50.208;18.988;2023-03-04T02:30:09;55.90;;;24.93;;
20348;SDS011;10332;50.208;18.988;2023-03-04T02:32:45;56.80;;;25.57;;
20348;SDS011;10332;50.208;18.988;2023-03-04T02:35:15;57.80;;;26.43;;
20348;SDS011;10332;50.208;18.988;2023-03-04T02:37:44;57.30;;;24.53;;
20348;SDS011;10332;50.208;18.988;2023-03-04T02:40:17;55.03;;;25.03;;
20348;SDS011;10332;50.208;18.988;2023-03-04T02:42:57;56.80;;;25.17;;
20348;SDS011;10332;50.208;18.988;2023-03-04T02:45:30;59.10;;;24.57;;
20348;SDS011;10332;50.208;18.988;2023-03-04T02:48:02;59.17;;;24.40;;
20348;SDS011;10332;50.208;18.988;2023-03-04T02:50:30;56.83;;;24.20;;
20348;SDS011;10332;50.208;18.988;2023-03-04T02:53:08;58.40;;;25.50;;
20348;SDS011;10332;50.208;18.988;2023-03-04T02:55:36;51.47;;;24.20;;
20348;SDS011;10332;50.208;18.988;2023-03-04T02:58:04;53.10;;;23.50;;
20348;SDS011;10332;50.208;18.988;2023-03-04T03:00:31;56.57;;;24.43;;
20348;SDS011;10332;50.208;18.988;2023-03-04T03:02:59;60.77;;;26.20;;
20348;SDS011;10332;50.208;18.988;2023-03-04T03:05:27;62.40;;;27.03;;
20348;SDS011;10332;50.208;18.988;2023-03-04T03:07:58;57.17;;;26.63;;
20348;SDS011;10332;50.208;18.988;2023-03-04T03:10:25;61.60;;;25.37;;
20348;SDS011;10332;50.208;18.988;2023-03-04T03:12:54;51.13;;;23.13;;
20348;SDS011;10332;50.208;18.988;2023-03-04T03:15:21;57.80;;;25.13;;
20348;SDS011;10332;50.208;18.988;2023-03-04T03:17:48;58.23;;;26.63;;
20348;SDS011;10332;50.208;18.988;2023-03-04T03:20:16;63.57;;;26.10;;
20348;SDS011;10332;50.208;18.988;2023-03-04T03:22:44;69.83;;;29.23;;
20348;SDS011;10332;50.208;18.988;2023-03-04T03:25:12;68.23;;;30.40;;
20348;SDS011;10332;50.208;18.988;2023-03-04T03:27:41;67.97;;;29.03;;
20348;SDS011;10332;50.208;18.988;2023-03-04T03:30:09;63.90;;;28.40;;
20348;SDS011;10332;50.208;18.988;2023-03-04T03:32:39;55.23;;;24.10;;
20348;SDS011;10332;50.208;18.988;2023-03-04T03:35:07;50.93;;;22.00;;
20348;SDS011;10332;50.208;18.988;2023-03-04T03:37:35;48.60;;;22.20;;
20348;SDS011;10332;50.208;18.988;2023-03-04T03:40:02;50.07;;;22.53;;
20348;SDS011;10332;50.208;18.988;2023-03-04T03:42:31;53.27;;;23.00;;
20348;SDS011;10332;50.208;18.988;2023-03-04T03:44:58;57.60;;;24.53;;
20348;SDS011;10332;50.208;18.988;2023-03-04T03:47:26;59.10;;;23.33;;
20348;SDS011;10332;50.208;18.988;2023-03-04T03:49:53;55.90;;;23.80;;
20348;SDS011;10332;50.208;18.988;2023-03-04T03:52:21;62.20;;;25.17;;
20348;SDS011;10332;50.208;18.988;2023-03-04T03:54:48;56.77;;;23.83;;
20348;SDS011;10332;50.208;18.988;2023-03-04T03:57:16;62.27;;;26.43;;
20348;SDS011;10332;50.208;18.988;2023-03-04T03:59:43;62.47;;;25.80;;
20348;SDS011;10332;50.208;18.988;2023-03-04T04:02:10;52.23;;;22.80;;
20348;SDS011;10332;50.208;18.988;2023-03-04T04:04:38;55.87;;;22.90;;
20348;SDS011;10332;50.208;18.988;2023-03-04T04:07:05;59.87;;;25.27;;
20348;SDS011;10332;50.208;18.988;2023-03-04T04:09:33;59.50;;;24.23;;
20348;SDS011;10332;50.208;18.988;2023-03-04T04:12:00;56.13;;;23.30;;
20348;SDS011;10332;50.208;18.988;2023-03-04T04:14:31;58.63;;;24.80;;
20348;SDS011;10332;50.208;18.988;2023-03-04T04:16:59;59.93;;;24.13;;
20348;SDS011;10332;50.208;18.988;2023-03-04T04:19:27;59.53;;;24.27;;
20348;SDS011;10332;50.208;18.988;2023-03-04T04:21:54;62.80;;;26.13;;
20348;SDS011;10332;50.208;18.988;2023-03-04T04:24:22;64.03;;;24.47;;
20348;SDS011;10332;50.208;18.988;2023-03-04T04:26:49;65.07;;;25.97;;
20348;SDS011;10332;50.208;18.988;2023-03-04T04:29:17;65.07;;;25.73;;
20348;SDS011;10332;50.208;18.988;2023-03-04T04:31:45;63.87;;;26.67;;
20348;SDS011;10332;50.208;18.988;2023-03-04T04:34:12;69.70;;;28.00;;
20348;SDS011;10332;50.208;18.988;2023-03-04T04:36:40;67.73;;;28.03;;
20348;SDS011;10332;50.208;18.988;2023-03-04T04:39:07;66.20;;;27.03;;
20348;SDS011;10332;50.208;18.988;2023-03-04T04:41:36;72.77;;;28.97;;
20348;SDS011;10332;50.208;18.988;2023-03-04T04:44:06;74.27;;;28.23;;
20348;SDS011;10332;50.208;18.988;2023-03-04T04:46:36;68.53;;;27.93;;
20348;SDS011;10332;50.208;18.988;2023-03-04T04:49:05;73.17;;;29.13;;
20348;SDS011;10332;50.208;18.988;2023-03-04T04:51:34;72.50;;;28.23;;
20348;SDS011;10332;50.208;18.988;2023-03-04T04:54:04;71.83;;;29.07;;
20348;SDS011;10332;50.208;18.988;2023-03-04T04:56:32;68.83;;;27.13;;
20348;SDS011;10332;50.208;18.988;2023-03-04T04:59:01;73.53;;;27.93;;
20348;SDS011;10332;50.208;18.988;2023-03-04T05:01:30;67.83;;;27.80;;
20348;SDS011;10332;50.208;18.988;2023-03-04T05:03:58;67.13;;;28.47;;
20348;SDS011;10332;50.208;18.988;2023-03-04T05:06:26;67.07;;;28.40;;
20348;SDS011;10332;50.208;18.988;2023-03-04T05:08:53;70.20;;;28.47;;
20348;SDS011;10332;50.208;18.988;2023-03-04T05:11:21;69.40;;;28.73;;
20348;SDS011;10332;50.208;18.988;2023-03-04T05:13:49;69.77;;;28.33;;
20348;SDS011;10332;50.208;18.988;2023-03-04T05:16:17;65.97;;;27.13;;
20348;SDS011;10332;50.208;18.988;2023-03-04T05:18:44;69.57;;;28.17;;
20348;SDS011;10332;50.208;18.988;2023-03-04T05:21:12;63.40;;;27.53;;
20348;SDS011;10332;50.208;18.988;2023-03-04T05:23:41;69.17;;;27.70;;
20348;SDS011;10332;50.208;18.988;2023-03-04T05:26:10;73.93;;;31.33;;
20348;SDS011;10332;50.208;18.988;2023-03-04T05:28:43;70.03;;;28.20;;
20348;SDS011;10332;50.208;18.988;2023-03-04T05:31:11;74.33;;;31.77;;
20348;SDS011;10332;50.208;18.988;2023-03-04T05:33:38;70.17;;;28.40;;
20348;SDS011;10332;50.208;18.988;2023-03-04T05:36:06;74.00;;;30.43;;
20348;SDS011;10332;50.208;18.988;2023-03-04T05:38:34;75.30;;;29.93;;
20348;SDS011;10332;50.208;18.988;2023-03-04T05:41:03;71.67;;;30.07;;
20348;SDS011;10332;50.208;18.988;2023-03-04T05:43:33;72.83;;;28.77;;
20348;SDS011;10332;50.208;18.988;2023-03-04T05:46:02;73.97;;;28.93;;
20348;SDS011;10332;50.208;18.988;2023-03-04T05:48:30;67.00;;;26.67;;
20348;SDS011;10332;50.208;18.988;2023-03-04T05:50:58;67.23;;;27.53;;
20348;SDS011;10332;50.208;18.988;2023-03-04T05:53:27;69.30;;;29.83;;
20348;SDS011;10332;50.208;18.988;2023-03-04T05:55:55;75.33;;;32.23;;
20348;SDS011;10332;50.208;18.988;2023-03-04T05:58:24;72.90;;;28.23;;
20348;SDS011;10332;50.208;18.988;2023-03-04T06:00:52;74.47;;;32.77;;
20348;SDS011;10332;50.208;18.988;2023-03-04T06:03:20;71.07;;;29.20;;
20348;SDS011;10332;50.208;18.988;2023-03-04T06:05:52;73.23;;;32.60;;
20348;SDS011;10332;50.208;18.988;2023-03-04T06:08:19;73.63;;;29.97;;
20348;SDS011;10332;50.208;18.988;2023-03-04T06:10:47;71.40;;;29.20;;
20348;SDS011;10332;50.208;18.988;2023-03-04T06:13:19;67.70;;;28.00;;
20348;SDS011;10332;50.208;18.988;2023-03-04T06:15:52;74.07;;;31.23;;
20348;SDS011;10332;50.208;18.988;2023-03-04T06:18:22;64.13;;;28.33;;
20348;SDS011;10332;50.208;18.988;2023-03-04T06:20:55;65.03;;;28.53;;
20348;SDS011;10332;50.208;18.988;2023-03-04T06:23:25;74.33;;;29.80;;
20348;SDS011;10332;50.208;18.988;2023-03-04T06:25:54;66.90;;;27.67;;
20348;SDS011;10332;50.208;18.988;2023-03-04T06:28:24;63.70;;;26.47;;
20348;SDS011;10332;50.208;18.988;2023-03-04T06:30:53;66.57;;;26.83;;
20348;SDS011;10332;50.208;18.988;2023-03-04T06:33:21;66.10;;;28.23;;
20348;SDS011;10332;50.208;18.988;2023-03-04T06:35:52;69.07;;;28.80;;
20348;SDS011;10332;50.208;18.988;2023-03-04T06:38:22;60.83;;;26.07;;
20348;SDS011;10332;50.208;18.988;2023-03-04T06:40:51;64.17;;;28.13;;
20348;SDS011;10332;50.208;18.988;2023-03-04T06:43:21;51.37;;;24.47;;
20348;SDS011;10332;50.208;18.988;2023-03-04T06:45:49;52.70;;;23.77;;
20348;SDS011;10332;50.208;18.988;2023-03-04T06:48:16;49.97;;;24.20;;
20348;SDS011;10332;50.208;18.988;2023-03-04T06:50:43;50.00;;;22.53;;
20348;SDS011;10332;50.208;18.988;2023-03-04T06:53:11;51.00;;;23.30;;
20348;SDS011;10332;50.208;18.988;2023-03-04T06:55:38;58.70;;;26.50;;
20348;SDS011;10332;50.208;18.988;2023-03-04T06:58:06;59.47;;;27.13;;
20348;SDS011;10332;50.208;18.988;2023-03-04T07:00:33;61.37;;;26.63;;
20348;SDS011;10332;50.208;18.988;2023-03-04T07:03:01;56.87;;;26.47;;
20348;SDS011;10332;50.208;18.988;2023-03-04T07:05:29;53.90;;;25.60;;
20348;SDS011;10332;50.208;18.988;2023-03-04T07:07:56;61.40;;;27.37;;
20348;SDS011;10332;50.208;18.988;2023-03-04T07:10:23;64.33;;;30.00;;
20348;SDS011;10332;50.208;18.988;2023-03-04T07:12:51;63.87;;;29.93;;
20348;SDS011;10332;50.208;18.988;2023-03-04T07:15:18;66.53;;;31.17;;
20348;SDS011;10332;50.208;18.988;2023-03-04T07:17:46;66.80;;;30.67;;
20348;SDS011;10332;50.208;18.988;2023-03-04T07:20:13;64.00;;;30.50;;
20348;SDS011;10332;50.208;18.988;2023-03-04T07:22:41;65.37;;;31.17;;
20348;SDS011;10332;50.208;18.988;2023-03-04T07:25:08;60.73;;;29.03;;
20348;SDS011;10332;50.208;18.988;2023-03-04T07:27:36;59.27;;;26.93;;
20348;SDS011;10332;50.208;18.988;2023-03-04T07:30:07;56.63;;;27.03;;
20348;SDS011;10332;50.208;18.988;2023-03-04T07:32:35;60.40;;;26.37;;
20348;SDS011;10332;50.208;18.988;2023-03-04T07:35:03;56.03;;;26.17;;
20348;SDS011;10332;50.208;18.988;2023-03-04T07:37:31;58.10;;;26.73;;
20348;SDS011;10332;50.208;18.988;2023-03-04T07:39:59;52.80;;;25.63;;
20348;SDS011;10332;50.208;18.988;2023-03-04T07:42:26;57.87;;;26.40;;
20348;SDS011;10332;50.208;18.988;2023-03-04T07:44:54;51.47;;;24.67;;
20348;SDS011;10332;50.208;18.988;2023-03-04T07:47:21;52.67;;;24.87;;
20348;SDS011;10332;50.208;18.988;2023-03-04T07:49:49;51.50;;;24.20;;
20348;SDS011;10332;50.208;18.988;2023-03-04T07:52:16;47.27;;;23.13;;
20348;SDS011;10332;50.208;18.988;2023-03-04T07:54:44;49.63;;;23.33;;
20348;SDS011;10332;50.208;18.988;2023-03-04T07:57:11;46.87;;;22.80;;
20348;SDS011;10332;50.208;18.988;2023-03-04T07:59:39;49.33;;;23.30;;
20348;SDS011;10332;50.208;18.988;2023-03-04T08:02:06;52.37;;;25.23;;
20348;SDS011;10332;50.208;18.988;2023-03-04T08:04:36;51.63;;;24.83;;
20348;SDS011;10332;50.208;18.988;2023-03-04T08:07:03;48.20;;;22.43;;
20348;SDS011;10332;50.208;18.988;2023-03-04T08:09:31;43.10;;;21.50;;
20348;SDS011;10332;50.208;18.988;2023-03-04T08:11:58;44.00;;;22.27;;
20348;SDS011;10332;50.208;18.988;2023-03-04T08:14:26;44.73;;;22.23;;
20348;SDS011;10332;50.208;18.988;2023-03-04T08:16:53;48.60;;;23.93;;
20348;SDS011;10332;50.208;18.988;2023-03-04T08:19:21;48.70;;;23.70;;
20348;SDS011;10332;50.208;18.988;2023-03-04T08:21:51;49.87;;;22.90;;
20348;SDS011;10332;50.208;18.988;2023-03-04T08:24:18;46.63;;;22.47;;
20348;SDS011;10332;50.208;18.988;2023-03-04T08:26:47;43.43;;;21.80;;
20348;SDS011;10332;50.208;18.988;2023-03-04T08:29:18;41.63;;;21.47;;
20348;SDS011;10332;50.208;18.988;2023-03-04T08:31:48;45.70;;;22.50;;
20348;SDS011;10332;50.208;18.988;2023-03-04T08:34:19;45.43;;;22.80;;
20348;SDS011;10332;50.208;18.988;2023-03-04T08:36:50;45.37;;;22.23;;
20348;SDS011;10332;50.208;18.988;2023-03-04T08:39:18;52.97;;;24.37;;
20348;SDS011;10332;50.208;18.988;2023-03-04T08:41:46;45.27;;;23.27;;
20348;SDS011;10332;50.208;18.988;2023-03-04T08:44:14;47.20;;;22.10;;
20348;SDS011;10332;50.208;18.988;2023-03-04T08:46:42;41.87;;;20.80;;
20348;SDS011;10332;50.208;18.988;2023-03-04T08:49:10;45.23;;;22.73;;
20348;SDS011;10332;50.208;18.988;2023-03-04T08:51:38;38.47;;;19.80;;
20348;SDS011;10332;50.208;18.988;2023-03-04T08:54:06;41.07;;;21.10;;
20348;SDS011;10332;50.208;18.988;2023-03-04T08:56:33;43.67;;;21.87;;
20348;SDS011;10332;50.208;18.988;2023-03-04T08:59:01;40.13;;;20.20;;
20348;SDS011;10332;50.208;18.988;2023-03-04T09:01:29;41.43;;;20.57;;
20348;SDS011;10332;50.208;18.988;2023-03-04T09:03:57;40.37;;;20.13;;
20348;SDS011;10332;50.208;18.988;2023-03-04T09:06:24;41.00;;;21.17;;
20348;SDS011;10332;50.208;18.988;2023-03-04T09:08:52;43.50;;;21.57;;
20348;SDS011;10332;50.208;18.988;2023-03-04T09:11:19;42.23;;;20.77;;
20348;SDS011;10332;50.208;18.988;2023-03-04T09:13:47;46.43;;;21.93;;
20348;SDS011;10332;50.208;18.988;2023-03-04T09:16:16;41.97;;;21.77;;
20348;SDS011;10332;50.208;18.988;2023-03-04T09:18:44;42.50;;;21.67;;
20348;SDS011;10332;50.208;18.988;2023-03-04T09:21:12;43.13;;;21.97;;
20348;SDS011;10332;50.208;18.988;2023-03-04T09:23:40;43.00;;;21.30;;
20348;SDS011;10332;50.208;18.988;2023-03-04T09:26:19;41.53;;;22.23;;
20348;SDS011;10332;50.208;18.988;2023-03-04T09:28:51;42.27;;;21.70;;
20348;SDS011;10332;50.208;18.988;2023-03-04T09:31:22;38.83;;;20.27;;
20348;SDS011;10332;50.208;18.988;2023-03-04T09:33:52;41.63;;;19.93;;
20348;SDS011;10332;50.208;18.988;2023-03-04T09:36:21;39.33;;;21.63;;
20348;SDS011;10332;50.208;18.988;2023-03-04T09:38:50;39.20;;;20.10;;
20348;SDS011;10332;50.208;18.988;2023-03-04T09:41:22;38.50;;;20.70;;
20348;SDS011;10332;50.208;18.988;2023-03-04T09:43:55;42.03;;;21.27;;
20348;SDS011;10332;50.208;18.988;2023-03-04T09:46:33;37.13;;;19.97;;
20348;SDS011;10332;50.208;18.988;2023-03-04T09:49:09;41.28;;;19.55;;
20348;SDS011;10332;50.208;18.988;2023-03-04T10:00:19;42.85;;;20.33;;
20348;SDS011;10332;50.208;18.988;2023-03-04T10:08:37;43.83;;;21.87;;
20348;SDS011;10332;50.208;18.988;2023-03-04T10:11:23;42.03;;;21.17;;
20348;SDS011;10332;50.208;18.988;2023-03-04T10:22:36;40.27;;;21.07;;
20348;SDS011;10332;50.208;18.988;2023-03-04T10:25:21;38.33;;;19.87;;
20348;SDS011;10332;50.208;18.988;2023-03-04T10:28:09;42.50;;;21.67;;
20348;SDS011;10332;50.208;18.988;2023-03-04T10:31:04;43.80;;;22.03;;
20348;SDS011;10332;50.208;18.988;2023-03-04T10:34:04;47.27;;;23.73;;
20348;SDS011;10332;50.208;18.988;2023-03-04T10:36:37;46.50;;;23.50;;
20348;SDS011;10332;50.208;18.988;2023-03-04T10:39:32;49.17;;;23.70;;
20348;SDS011;10332;50.208;18.988;2023-03-04T10:44:41;50.97;;;25.77;;
20348;SDS011;10332;50.208;18.988;2023-03-04T10:47:21;56.28;;;26.27;;
20348;SDS011;10332;50.208;18.988;2023-03-04T10:49:56;55.27;;;27.13;;
20348;SDS011;10332;50.208;18.988;2023-03-04T10:52:38;59.70;;;28.87;;
20348;SDS011;10332;50.208;18.988;2023-03-04T10:55:16;59.60;;;29.13;;
20348;SDS011;10332;50.208;18.988;2023-03-04T10:57:47;64.15;;;29.10;;
20348;SDS011;10332;50.208;18.988;2023-03-04T11:00:24;62.97;;;31.60;;
20348;SDS011;10332;50.208;18.988;2023-03-04T11:08:54;74.23;;;35.40;;
20348;SDS011;10332;50.208;18.988;2023-03-04T11:11:27;76.80;;;36.07;;
20348;SDS011;10332;50.208;18.988;2023-03-04T11:14:12;74.53;;;31.80;;
20348;SDS011;10332;50.208;18.988;2023-03-04T11:16:56;71.07;;;33.90;;
20348;SDS011;10332;50.208;18.988;2023-03-04T11:19:28;71.43;;;32.83;;
20348;SDS011;10332;50.208;18.988;2023-03-04T11:22:05;72.57;;;33.27;;
20348;SDS011;10332;50.208;18.988;2023-03-04T11:24:33;68.47;;;31.43;;
20348;SDS011;10332;50.208;18.988;2023-03-04T11:27:14;76.43;;;34.07;;
20348;SDS011;10332;50.208;18.988;2023-03-04T11:32:39;72.13;;;31.27;;
20348;SDS011;10332;50.208;18.988;2023-03-04T11:35:21;63.73;;;29.67;;
20348;SDS011;10332;50.208;18.988;2023-03-04T11:38:03;69.10;;;31.70;;
20348;SDS011;10332;50.208;18.988;2023-03-04T11:43:19;64.73;;;27.63;;
20348;SDS011;10332;50.208;18.988;2023-03-04T11:58:08;59.27;;;27.23;;
20348;SDS011;10332;50.208;18.988;2023-03-04T12:01:23;59.50;;;27.87;;
20348;SDS011;10332;50.208;18.988;2023-03-04T12:07:12;58.20;;;26.42;;
20348;SDS011;10332;50.208;18.988;2023-03-04T12:22:21;55.42;;;25.73;;
20348;SDS011;10332;50.208;18.988;2023-03-04T12:39:26;61.70;;;28.63;;
20348;SDS011;10332;50.208;18.988;2023-03-04T12:48:33;63.60;;;28.67;;
20348;SDS011;10332;50.208;18.988;2023-03-04T12:51:24;57.03;;;27.67;;
20348;SDS011;10332;50.208;18.988;2023-03-04T12:56:59;60.53;;;26.87;;
20348;SDS011;10332;50.208;18.988;2023-03-04T12:59:43;53.30;;;25.27;;
20348;SDS011;10332;50.208;18.988;2023-03-04T13:16:44;53.08;;;23.23;;
20348;SDS011;10332;50.208;18.988;2023-03-04T13:22:34;53.83;;;25.53;;
20348;SDS011;10332;50.208;18.988;2023-03-04T13:35:50;44.00;;;22.00;;
20348;SDS011;10332;50.208;18.988;2023-03-04T13:38:35;49.78;;;24.52;;
20348;SDS011;10332;50.208;18.988;2023-03-04T13:43:54;42.92;;;22.05;;
20348;SDS011;10332;50.208;18.988;2023-03-04T13:51:31;40.40;;;21.52;;
20348;SDS011;10332;50.208;18.988;2023-03-04T13:56:45;45.20;;;22.50;;
20348;SDS011;10332;50.208;18.988;2023-03-04T13:59:24;47.93;;;23.73;;
20348;SDS011;10332;50.208;18.988;2023-03-04T14:04:41;45.47;;;22.30;;
20348;SDS011;10332;50.208;18.988;2023-03-04T14:07:19;48.20;;;23.85;;
20348;SDS011;10332;50.208;18.988;2023-03-04T14:12:53;48.20;;;22.58;;
20348;SDS011;10332;50.208;18.988;2023-03-04T14:15:25;42.63;;;22.15;;
20348;SDS011;10332;50.208;18.988;2023-03-04T14:18:01;46.17;;;23.40;;
20348;SDS011;10332;50.208;18.988;2023-03-04T14:20:35;45.22;;;21.58;;
20348;SDS011;10332;50.208;18.988;2023-03-04T14:26:09;46.85;;;22.38;;
20348;SDS011;10332;50.208;18.988;2023-03-04T14:28:45;45.72;;;22.58;;
20348;SDS011;10332;50.208;18.988;2023-03-04T14:31:21;46.28;;;22.48;;
20348;SDS011;10332;50.208;18.988;2023-03-04T14:33:53;46.35;;;22.23;;
20348;SDS011;10332;50.208;18.988;2023-03-04T14:36:29;50.88;;;24.08;;
20348;SDS011;10332;50.208;18.988;2023-03-04T14:39:02;44.92;;;23.52;;
20348;SDS011;10332;50.208;18.988;2023-03-04T14:41:33;49.20;;;23.50;;
20348;SDS011;10332;50.208;18.988;2023-03-04T14:44:07;45.92;;;22.98;;
20348;SDS011;10332;50.208;18.988;2023-03-04T14:49:45;40.65;;;20.48;;
20348;SDS011;10332;50.208;18.988;2023-03-04T14:55:19;43.57;;;22.03;;
20348;SDS011;10332;50.208;18.988;2023-03-04T14:58:05;44.00;;;21.77;;
20348;SDS011;10332;50.208;18.988;2023-03-04T15:00:47;43.47;;;21.58;;
20348;SDS011;10332;50.208;18.988;2023-03-04T15:03:22;42.10;;;19.83;;
20348;SDS011;10332;50.208;18.988;2023-03-04T15:06:04;37.80;;;19.60;;
20348;SDS011;10332;50.208;18.988;2023-03-04T15:08:42;46.65;;;22.40;;
20348;SDS011;10332;50.208;18.988;2023-03-04T15:11:24;48.50;;;22.98;;
20348;SDS011;10332;50.208;18.988;2023-03-04T15:13:56;46.20;;;22.17;;
20348;SDS011;10332;50.208;18.988;2023-03-04T15:16:26;51.83;;;23.55;;
20348;SDS011;10332;50.208;18.988;2023-03-04T15:19:28;49.80;;;24.42;;
20348;SDS011;10332;50.208;18.988;2023-03-04T15:22:02;47.60;;;24.88;;
20348;SDS011;10332;50.208;18.988;2023-03-04T15:24:33;55.83;;;26.30;;
20348;SDS011;10332;50.208;18.988;2023-03-04T15:27:01;55.45;;;25.60;;
20348;SDS011;10332;50.208;18.988;2023-03-04T15:29:33;57.17;;;25.97;;
20348;SDS011;10332;50.208;18.988;2023-03-04T15:32:00;53.93;;;25.53;;
20348;SDS011;10332;50.208;18.988;2023-03-04T15:34:28;56.60;;;26.97;;
20348;SDS011;10332;50.208;18.988;2023-03-04T15:36:56;52.47;;;25.00;;
20348;SDS011;10332;50.208;18.988;2023-03-04T15:39:26;49.78;;;24.63;;
20348;SDS011;10332;50.208;18.988;2023-03-04T15:41:53;54.10;;;25.90;;
20348;SDS011;10332;50.208;18.988;2023-03-04T15:44:21;52.50;;;25.80;;
20348;SDS011;10332;50.208;18.988;2023-03-04T15:46:49;55.00;;;25.55;;
20348;SDS011;10332;50.208;18.988;2023-03-04T15:49:16;51.65;;;25.38;;
20348;SDS011;10332;50.208;18.988;2023-03-04T15:51:43;51.08;;;24.55;;
20348;SDS011;10332;50.208;18.988;2023-03-04T15:54:11;50.63;;;24.73;;
20348;SDS011;10332;50.208;18.988;2023-03-04T15:56:39;59.25;;;26.83;;
20348;SDS011;10332;50.208;18.988;2023-03-04T15:59:13;58.85;;;28.23;;
20348;SDS011;10332;50.208;18.988;2023-03-04T16:01:42;63.95;;;28.13;;
20348;SDS011;10332;50.208;18.988;2023-03-04T16:04:12;62.17;;;29.57;;
20348;SDS011;10332;50.208;18.988;2023-03-04T16:06:43;63.55;;;29.85;;
20348;SDS011;10332;50.208;18.988;2023-03-04T16:09:14;61.20;;;28.75;;
20348;SDS011;10332;50.208;18.988;2023-03-04T16:11:46;65.30;;;30.45;;
20348;SDS011;10332;50.208;18.988;2023-03-04T16:14:14;64.60;;;28.77;;
20348;SDS011;10332;50.208;18.988;2023-03-04T16:16:42;64.68;;;30.25;;
20348;SDS011;10332;50.208;18.988;2023-03-04T16:19:13;59.47;;;28.92;;
20348;SDS011;10332;50.208;18.988;2023-03-04T16:21:40;58.40;;;28.95;;
20348;SDS011;10332;50.208;18.988;2023-03-04T16:24:14;59.53;;;28.35;;
20348;SDS011;10332;50.208;18.988;2023-03-04T16:26:45;57.17;;;26.90;;
20348;SDS011;10332;50.208;18.988;2023-03-04T16:29:14;58.85;;;26.90;;
20348;SDS011;10332;50.208;18.988;2023-03-04T16:31:42;59.30;;;26.33;;
20348;SDS011;10332;50.208;18.988;2023-03-04T16:34:10;58.28;;;25.85;;
20348;SDS011;10332;50.208;18.988;2023-03-04T16:36:37;53.78;;;25.73;;
20348;SDS011;10332;50.208;18.988;2023-03-04T16:39:09;51.58;;;26.35;;
20348;SDS011;10332;50.208;18.988;2023-03-04T16:41:48;59.92;;;28.85;;
20348;SDS011;10332;50.208;18.988;2023-03-04T16:44:17;60.80;;;28.50;;
20348;SDS011;10332;50.208;18.988;2023-03-04T16:46:45;54.45;;;26.60;;
20348;SDS011;10332;50.208;18.988;2023-03-04T16:49:12;55.03;;;27.25;;
20348;SDS011;10332;50.208;18.988;2023-03-04T16:51:42;53.20;;;27.08;;